Time;durP1;ratioP1;P1;durP2;ratioP2;P2;SDS_P1;SDS_P2;PMS_P1;PMS_P2;Temp;Humidity;BMP_temperature;BMP_pressure;BME280_temperature;BME280_humidity;BME280_pressure;Samples;Min_cycle;Max_cycle;Signal;HPM_P1;HPM_P2
2021/11/03 00:02:10;;;;;;;68.42;31.75;;;;;;;6.68;100.00;98569.88;1707348;83;20987;-69
2021/11/03 00:04:40;;;;;;;66.60;32.85;;;;;;;6.66;100.00;98566.66;1705082;83;20957;-69
2021/11/03 00:07:14;;;;;;;71.42;33.30;;;;;;;6.67;100.00;98562.25;1707700;83;21100;-71
2021/11/03 00:09:44;;;;;;;64.58;31.73;;;;;;;6.69;100.00;98564.67;1682812;83;20947;-70
2021/11/03 00:12:14;;;;;;;70.67;32.50;;;;;;;6.70;100.00;98566.28;1698995;83;21068;-70
2021/11/03 00:14:47;;;;;;;68.22;31.23;;;;;;;6.71;100.00;98565.97;1676518;83;20929;-70
2021/11/03 00:17:19;;;;;;;66.92;31.27;;;;;;;6.71;100.00;98571.42;1703255;83;20955;-70
2021/11/03 00:19:50;;;;;;;59.73;30.15;;;;;;;6.73;100.00;98570.55;1709275;83;21502;-71
2021/11/03 00:22:21;;;;;;;73.17;33.85;;;;;;;6.75;100.00;98564.78;1697513;83;21172;-70
2021/11/03 00:24:52;;;;;;;70.87;33.45;;;;;;;6.75;100.00;98570.23;1703779;83;21031;-70
2021/11/03 00:27:23;;;;;;;68.83;32.85;;;;;;;6.77;100.00;98568.00;1701188;83;20933;-70
2021/11/03 00:30:01;;;;;;;71.02;31.97;;;;;;;6.78;100.00;98562.78;1704503;83;21027;-70
2021/11/03 00:32:34;;;;;;;59.48;30.40;;;;;;;6.79;100.00;98561.11;1694355;83;21083;-70
2021/11/03 00:35:06;;;;;;;67.50;32.40;;;;;;;6.81;100.00;98560.23;1703855;83;21558;-70
2021/11/03 00:37:35;;;;;;;65.55;32.55;;;;;;;6.83;100.00;98562.65;1708894;83;21102;-69
2021/11/03 00:40:07;;;;;;;69.12;31.90;;;;;;;6.85;100.00;98562.58;1696245;83;21070;-69
2021/11/03 00:42:45;;;;;;;67.17;31.93;;;;;;;6.86;100.00;98559.30;1702921;83;20921;-69
2021/11/03 00:45:13;;;;;;;65.03;31.20;;;;;;;6.87;100.00;98563.07;1713765;83;20999;-69
2021/11/03 00:47:46;;;;;;;69.90;32.33;;;;;;;6.90;100.00;98561.08;1693261;83;21272;-69
2021/11/03 00:50:18;;;;;;;70.50;32.10;;;;;;;6.91;100.00;98561.88;1698572;83;21511;-69
2021/11/03 00:52:47;;;;;;;62.70;29.18;;;;;;;6.92;100.00;98555.30;1703109;83;21549;-69
2021/11/03 00:55:19;;;;;;;57.70;28.20;;;;;;;6.94;100.00;98562.59;1691863;83;20944;-69
2021/11/03 00:57:54;;;;;;;64.15;31.68;;;;;;;6.95;100.00;98561.47;1684715;84;20992;-69
2021/11/03 01:00:21;;;;;;;67.15;31.00;;;;;;;6.99;100.00;98561.08;1677660;83;21172;-69
2021/11/03 01:02:53;;;;;;;59.50;26.70;;;;;;;7.02;100.00;98561.81;1696974;83;21052;-69
2021/11/03 01:05:25;;;;;;;71.70;32.05;;;;;;;7.06;100.00;98560.06;1667844;82;21027;-70
2021/11/03 01:07:57;;;;;;;65.85;31.87;;;;;;;7.08;100.00;98554.28;1702778;83;20999;-69
2021/11/03 01:10:27;;;;;;;62.62;29.23;;;;;;;7.12;100.00;98560.16;1700239;83;21490;-70
2021/11/03 01:12:57;;;;;;;63.52;30.17;;;;;;;7.13;100.00;98556.31;1697716;83;21143;-70
2021/11/03 01:15:25;;;;;;;58.73;28.15;;;;;;;7.15;100.00;98561.45;1668522;83;21613;-70
2021/11/03 01:17:55;;;;;;;53.95;25.50;;;;;;;7.18;100.00;98556.16;1668971;83;21474;-70
2021/11/03 01:20:29;;;;;;;66.30;31.10;;;;;;;7.20;100.00;98553.92;1698357;83;21061;-70
2021/11/03 01:22:59;;;;;;;59.40;29.23;;;;;;;7.23;100.00;98551.92;1701990;83;21110;-70
2021/11/03 01:25:28;;;;;;;61.18;28.55;;;;;;;7.25;100.00;98551.05;1701624;83;23255;-71
2021/11/03 01:28:04;;;;;;;60.48;29.32;;;;;;;7.28;100.00;98547.68;1706714;83;20975;-70
2021/11/03 01:30:41;;;;;;;66.82;30.57;;;;;;;7.31;100.00;98550.34;1691270;83;21501;-70
2021/11/03 01:33:11;;;;;;;52.75;27.37;;;;;;;7.34;100.00;98537.98;1692330;83;21021;-70
2021/11/03 01:35:46;;;;;;;63.58;30.43;;;;;;;7.36;100.00;98539.83;1696572;83;21538;-69
2021/11/03 01:38:16;;;;;;;63.00;30.52;;;;;;;7.38;100.00;98544.41;1703116;83;21190;-70
2021/11/03 01:40:49;;;;;;;61.30;28.40;;;;;;;7.39;100.00;98544.09;1667021;83;21005;-70
2021/11/03 01:43:42;;;;;;;68.65;32.40;;;;;;;7.42;100.00;98548.11;1698089;83;21495;-70
2021/11/03 01:46:27;;;;;;;64.07;29.23;;;;;;;7.44;100.00;98545.86;1697634;83;20936;-71
2021/11/03 01:49:18;;;;;;;65.03;30.00;;;;;;;7.45;100.00;98548.84;1674422;83;20986;-71
2021/11/03 01:52:09;;;;;;;59.08;30.37;;;;;;;7.48;100.00;98555.83;1705098;83;21510;-71
2021/11/03 01:54:47;;;;;;;67.82;31.12;;;;;;;7.49;100.00;98547.88;1703856;83;21182;-71
2021/11/03 01:57:23;;;;;;;70.87;30.37;;;;;;;7.52;100.00;98548.58;1699970;83;21478;-70
2021/11/03 01:59:54;;;;;;;65.08;30.08;;;;;;;7.55;100.00;98552.59;1692711;83;21051;-71
2021/11/03 02:02:27;;;;;;;;;;;;;;;7.57;100.00;98557.17;1682151;83;21087;-70
2021/11/03 02:04:56;;;;;;;63.02;29.00;;;;;;;7.59;100.00;98557.66;1702583;83;21124;-71
2021/11/03 02:07:36;;;;;;;57.00;29.18;;;;;;;7.60;100.00;98556.54;1715512;83;20888;-70
2021/11/03 02:10:05;;;;;;;66.77;30.77;;;;;;;7.62;100.00;98551.00;1697210;83;21431;-71
2021/11/03 02:12:35;;;;;;;64.90;29.20;;;;;;;7.64;100.00;98552.05;1717378;83;21003;-71
2021/11/03 02:15:11;;;;;;;67.03;32.10;;;;;;;7.67;100.00;98556.06;1694755;83;20946;-71
2021/11/03 02:17:40;;;;;;;61.80;29.85;;;;;;;7.68;100.00;98558.47;1701458;83;21239;-71
2021/11/03 02:20:16;;;;;;;61.23;29.67;;;;;;;7.69;100.00;98555.18;1698502;83;20961;-71
2021/11/03 02:23:15;;;;;;;65.85;29.52;;;;;;;7.71;100.00;98556.47;1708139;83;20897;-71
2021/11/03 02:25:46;;;;;;;64.85;29.52;;;;;;;7.72;100.00;98547.70;1705981;83;21554;-70
2021/11/03 02:28:13;;;;;;;66.10;29.27;;;;;;;7.73;100.00;98558.88;1670576;84;21606;-70
2021/11/03 02:30:44;;;;;;;58.42;28.98;;;;;;;7.72;100.00;98541.69;1642781;86;20982;-70
2021/11/03 02:33:23;;;;;;;58.35;30.08;;;;;;;7.73;100.00;98552.05;1715706;83;20990;-70
2021/11/03 02:35:54;;;;;;;71.60;30.57;;;;;;;7.73;100.00;98557.52;1707611;83;20988;-69
2021/11/03 02:38:30;;;;;;;59.67;25.85;;;;;;;7.73;100.00;98564.34;1698359;83;21032;-69
2021/11/03 02:41:16;;;;;;;65.97;30.15;;;;;;;7.75;100.00;98562.90;1693475;83;20949;-68
2021/11/03 02:43:54;;;;;;;68.35;30.35;;;;;;;7.77;100.00;98567.48;1677075;83;21157;-69
2021/11/03 02:46:30;;;;;;;74.47;31.30;;;;;;;7.78;100.00;98561.45;1698466;83;20987;-70
2021/11/03 02:48:57;;;;;;;80.05;33.78;;;;;;;7.79;100.00;98565.23;1702732;83;21541;-70
2021/11/03 02:51:37;;;;;;;99.75;38.90;;;;;;;7.81;100.00;98564.91;1702535;83;20951;-69
2021/11/03 02:54:14;;;;;;;83.47;34.65;;;;;;;7.83;100.00;98568.13;1698052;83;21594;-68
2021/11/03 02:57:00;;;;;;;71.87;31.25;;;;;;;7.83;100.00;98564.83;1700524;83;21818;-70
2021/11/03 02:59:25;;;;;;;68.78;28.83;;;;;;;7.84;100.00;98570.54;1692093;83;21561;-70
2021/11/03 03:01:59;;;;;;;64.07;30.08;;;;;;;7.85;100.00;98566.68;1705017;83;21558;-71
2021/11/03 03:04:38;;;;;;;68.35;28.42;;;;;;;7.85;100.00;98563.14;1704671;84;21441;-71
2021/11/03 03:07:09;;;;;;;51.18;24.92;;;;;;;7.86;100.00;98566.12;1700933;83;21057;-69
2021/11/03 03:09:39;;;;;;;56.02;27.70;;;;;;;7.86;100.00;98571.02;1703879;83;21900;-69
2021/11/03 03:12:13;;;;;;;61.58;28.17;;;;;;;7.88;100.00;98576.97;1693389;83;20931;-68
2021/11/03 03:14:44;;;;;;;63.35;27.45;;;;;;;7.89;100.00;98574.48;1692791;83;20904;-69
2021/11/03 03:17:13;;;;;;;54.30;25.27;;;;;;;7.91;100.00;98571.42;1707446;83;20916;-70
2021/11/03 03:19:41;;;;;;;48.98;26.00;;;;;;;7.90;100.00;98568.45;1705552;83;21586;-70
2021/11/03 03:22:13;;;;;;;53.58;25.90;;;;;;;7.91;100.00;98569.50;1690373;83;21912;-69
2021/11/03 03:24:46;;;;;;;53.70;24.35;;;;;;;7.90;100.00;98569.25;1694040;83;21550;-70
2021/11/03 03:27:18;;;;;;;60.20;27.52;;;;;;;7.92;100.00;98572.47;1718030;82;20920;-70
2021/11/03 03:29:47;;;;;;;54.30;24.50;;;;;;;7.93;100.00;98568.61;1695506;82;21490;-70
2021/11/03 03:32:19;;;;;;;55.43;26.02;;;;;;;7.94;100.00;98571.58;1675588;83;21027;-69
2021/11/03 03:34:49;;;;;;;51.48;24.20;;;;;;;7.97;100.00;98572.06;1701109;83;22000;-69
2021/11/03 03:37:24;;;;;;;47.85;24.12;;;;;;;7.97;100.00;98571.50;1666820;84;21118;-69
2021/11/03 03:39:54;;;;;;;54.48;26.40;;;;;;;7.97;100.00;98572.06;1694138;83;21010;-69
2021/11/03 03:42:22;;;;;;;47.93;24.30;;;;;;;7.98;100.00;98568.21;1705637;83;21084;-69
2021/11/03 03:44:51;;;;;;;49.85;23.30;;;;;;;7.98;100.00;98565.48;1695658;83;20936;-69
2021/11/03 03:47:17;;;;;;;49.73;22.93;;;;;;;7.99;100.00;98573.35;1688260;82;21167;-69
2021/11/03 03:49:45;;;;;;;51.55;24.57;;;;;;;7.99;100.00;98571.19;1698789;83;21195;-69
2021/11/03 03:52:19;;;;;;;48.90;23.87;;;;;;;7.99;100.00;98566.52;1699473;83;20998;-70
2021/11/03 03:54:50;;;;;;;52.93;25.15;;;;;;;8.00;100.00;98567.33;1701149;83;21033;-71
2021/11/03 03:57:19;;;;;;;55.40;25.00;;;;;;;8.01;100.00;98570.30;1682387;83;21653;-70
2021/11/03 03:59:52;;;;;;;51.18;25.10;;;;;;;8.02;100.00;98574.08;1689196;83;21144;-70
2021/11/03 04:02:26;;;;;;;57.40;24.45;;;;;;;8.01;100.00;98575.20;1668005;84;21035;-70
2021/11/03 04:04:56;;;;;;;65.20;26.85;;;;;;;8.03;100.00;98576.25;1702460;83;21495;-69
2021/11/03 04:07:25;;;;;;;63.78;26.73;;;;;;;8.04;100.00;98571.02;1699127;83;20928;-70
2021/11/03 04:09:56;;;;;;;57.15;24.55;;;;;;;8.05;100.00;98569.89;1697658;83;21688;-71
2021/11/03 04:12:28;;;;;;;47.67;23.47;;;;;;;8.07;100.00;98573.11;1703798;83;20971;-70
2021/11/03 04:14:58;;;;;;;47.45;23.67;;;;;;;8.08;100.00;98566.52;1704835;83;21016;-70
2021/11/03 04:17:31;;;;;;;43.90;21.68;;;;;;;8.08;100.00;98567.88;1709275;83;20972;-72
2021/11/03 04:20:04;;;;;;;47.58;22.65;;;;;;;8.06;100.00;98561.37;1697619;83;21153;-72
2021/11/03 04:22:35;;;;;;;39.83;19.45;;;;;;;8.07;100.00;98559.45;1697915;84;20889;-72
2021/11/03 04:25:04;;;;;;;43.40;21.82;;;;;;;8.08;100.00;98565.15;1695863;83;21279;-72
2021/11/03 04:27:36;;;;;;;45.45;21.65;;;;;;;8.08;100.00;98565.95;1672865;83;21439;-72
2021/11/03 04:30:10;;;;;;;51.08;23.02;;;;;;;8.09;100.00;98579.03;1676655;84;20896;-72
2021/11/03 04:32:40;;;;;;;56.77;24.10;;;;;;;8.10;100.00;98582.00;1697688;83;20990;-72
2021/11/03 04:35:15;;;;;;;60.65;25.92;;;;;;;8.11;100.00;98584.98;1675825;83;21598;-72
2021/11/03 04:37:45;;;;;;;62.05;26.35;;;;;;;8.11;100.00;98584.98;1677842;83;21176;-72
2021/11/03 04:40:15;;;;;;;51.88;23.50;;;;;;;8.11;100.00;98585.78;1669724;84;20916;-72
2021/11/03 04:42:46;;;;;;;49.93;24.15;;;;;;;8.13;100.00;98590.36;1626531;86;21626;-72
2021/11/03 04:45:22;;;;;;;57.90;23.98;;;;;;;8.14;100.00;98598.80;1708582;83;21012;-70
2021/11/03 04:47:49;;;;;;;64.97;25.62;;;;;;;8.15;100.00;98607.81;1693459;83;20980;-70
2021/11/03 04:50:28;;;;;;;66.25;27.25;;;;;;;8.17;100.00;98606.36;1694865;83;21797;-70
2021/11/03 04:53:00;;;;;;;45.12;21.77;;;;;;;8.18;100.00;98614.80;1705724;83;20896;-70
2021/11/03 04:55:33;;;;;;;53.17;23.52;;;;;;;8.20;100.00;98615.84;1704593;84;20957;-70
2021/11/03 04:58:01;;;;;;;52.85;24.20;;;;;;;8.22;100.00;98621.80;1703124;83;21079;-70
2021/11/03 05:00:33;;;;;;;44.35;21.17;;;;;;;8.23;100.00;98627.51;1703697;83;20927;-70
2021/11/03 05:03:03;;;;;;;37.67;18.27;;;;;;;8.23;100.00;98629.68;1675390;84;21233;-71
2021/11/03 05:05:34;;;;;;;38.60;18.70;;;;;;;8.24;100.00;98630.48;1700165;83;21030;-72
2021/11/03 05:08:08;;;;;;;32.42;17.87;;;;;;;8.26;100.00;98628.23;1663622;84;21644;-72
2021/11/03 05:10:38;;;;;;;34.58;17.45;;;;;;;8.27;100.00;98633.94;1682972;83;21167;-72
2021/11/03 05:13:08;;;;;;;37.35;18.00;;;;;;;8.28;100.00;98630.88;1692178;83;21051;-71
2021/11/03 05:15:37;;;;;;;36.70;17.42;;;;;;;8.31;100.00;98635.47;1696573;83;21531;-72
2021/11/03 05:18:04;;;;;;;32.30;17.02;;;;;;;8.32;100.00;98636.52;1693735;83;21178;-70
2021/11/03 05:20:34;;;;;;;32.70;16.73;;;;;;;8.34;100.00;98643.05;1694289;83;21032;-71
2021/11/03 05:23:07;;;;;;;31.87;16.05;;;;;;;8.36;100.00;98647.64;1668579;83;21530;-71
2021/11/03 05:25:38;;;;;;;26.70;14.98;;;;;;;8.38;100.00;98651.66;1686547;83;21064;-71
2021/11/03 05:28:06;;;;;;;25.30;14.23;;;;;;;8.40;100.00;98653.51;1704245;82;21144;-69
2021/11/03 05:30:36;;;;;;;24.35;13.65;;;;;;;8.43;100.00;98656.16;1671457;83;20971;-71
2021/11/03 05:33:07;;;;;;;22.87;12.90;;;;;;;8.44;100.00;98659.14;1704003;83;21025;-70
2021/11/03 05:35:38;;;;;;;20.15;11.73;;;;;;;8.44;100.00;98669.52;1703147;81;20998;-71
2021/11/03 05:38:06;;;;;;;22.70;12.70;;;;;;;8.45;100.00;98672.50;1695934;83;21022;-71
2021/11/03 05:40:37;;;;;;;20.00;11.45;;;;;;;8.47;100.00;98678.45;1696089;83;21176;-70
2021/11/03 05:43:06;;;;;;;19.75;11.30;;;;;;;8.48;100.00;98675.95;1701404;83;20918;-71
2021/11/03 05:45:38;;;;;;;18.07;11.12;;;;;;;8.49;100.00;98682.23;1708914;82;20871;-70
2021/11/03 05:48:05;;;;;;;18.40;10.50;;;;;;;8.50;100.00;98687.94;1705261;84;21009;-72
2021/11/03 05:50:36;;;;;;;16.73;10.00;;;;;;;8.51;100.00;98687.62;1707565;82;20923;-70
2021/11/03 05:53:09;;;;;;;22.32;11.97;;;;;;;8.51;100.00;98697.75;1681799;83;21010;-70
2021/11/03 05:55:41;;;;;;;23.92;11.25;;;;;;;8.51;100.00;98701.30;1700320;82;21086;-69
2021/11/03 05:58:08;;;;;;;23.50;13.08;;;;;;;8.53;100.00;98708.61;1695391;82;21113;-69
2021/11/03 06:00:38;;;;;;;20.90;13.88;;;;;;;8.53;100.00;98708.61;1685530;82;20961;-76
2021/11/03 06:03:08;;;;;;;26.42;16.42;;;;;;;8.54;100.00;98708.86;1705586;82;21484;-70
2021/11/03 06:05:41;;;;;;;41.15;26.50;;;;;;;8.54;100.00;98721.16;1694470;83;21039;-71
2021/11/03 06:08:14;;;;;;;37.25;23.02;;;;;;;8.56;100.00;98718.91;1647013;85;21000;-70
2021/11/03 06:10:48;;;;;;;33.98;21.95;;;;;;;8.57;100.00;98723.26;1693252;83;21576;-72
2021/11/03 06:13:19;;;;;;;30.75;17.48;;;;;;;8.61;100.00;98726.16;1684835;83;21118;-70
2021/11/03 06:15:47;;;;;;;27.55;15.58;;;;;;;8.63;100.00;98735.41;1705616;83;21105;-69
2021/11/03 06:18:18;;;;;;;25.02;13.78;;;;;;;8.63;100.00;98736.21;1702241;83;21041;-71
2021/11/03 06:20:54;;;;;;;25.65;14.80;;;;;;;8.64;100.00;98739.19;1699576;83;20931;-70
2021/11/03 06:23:22;;;;;;;26.07;16.20;;;;;;;8.65;100.00;98742.73;1686866;83;21134;-69
2021/11/03 06:25:53;;;;;;;27.25;16.12;;;;;;;8.65;100.00;98749.57;1695569;83;21584;-69
2021/11/03 06:28:25;;;;;;;27.27;15.58;;;;;;;8.65;100.00;98746.27;1671083;83;20954;-69
2021/11/03 06:30:57;;;;;;;32.33;18.07;;;;;;;8.64;100.00;98752.06;1703749;82;22378;-71
2021/11/03 06:33:28;;;;;;;30.62;17.75;;;;;;;8.63;100.00;98751.83;1683983;82;21438;-69
2021/11/03 06:36:07;;;;;;;42.95;21.25;;;;;;;8.63;100.00;98756.73;1709176;82;20974;-74
2021/11/03 06:38:34;;;;;;;29.77;15.88;;;;;;;8.63;100.00;98757.30;1703521;83;20931;-74
2021/11/03 06:41:04;;;;;;;32.90;19.17;;;;;;;8.63;100.00;98761.40;1699948;82;21422;-73
2021/11/03 06:43:33;;;;;;;30.08;18.60;;;;;;;8.65;100.00;98763.25;1700491;83;21472;-69
2021/11/03 06:46:04;;;;;;;38.55;21.90;;;;;;;8.65;100.00;98765.98;1631829;85;21423;-70
2021/11/03 06:48:36;;;;;;;34.95;19.42;;;;;;;8.64;100.00;98769.28;1646739;86;21044;-69
2021/11/03 06:51:04;;;;;;;40.30;21.20;;;;;;;8.64;100.00;98767.92;1670585;84;21011;-74
2021/11/03 06:53:37;;;;;;;41.55;24.23;;;;;;;8.65;100.00;98767.36;1679002;83;21078;-69
2021/11/03 06:56:06;;;;;;;45.40;28.32;;;;;;;8.66;100.00;98769.77;1699088;83;21835;-70
2021/11/03 06:58:35;;;;;;;49.00;31.00;;;;;;;8.69;100.00;98773.77;1693440;83;21199;-74
2021/11/03 07:01:08;;;;;;;50.33;33.38;;;;;;;8.69;100.00;98775.94;1712716;82;21544;-75
2021/11/03 07:03:41;;;;;;;57.05;35.73;;;;;;;8.70;100.00;98780.84;1687438;83;21626;-73
2021/11/03 07:06:13;;;;;;;67.42;40.58;;;;;;;8.71;100.00;98773.69;1689218;83;20925;-68
2021/11/03 07:08:47;;;;;;;51.95;32.73;;;;;;;8.73;100.00;98776.91;1680730;83;21743;-73
2021/11/03 07:11:12;;;;;;;43.25;24.87;;;;;;;8.76;100.00;98780.36;1695287;83;20992;-71
2021/11/03 07:13:39;;;;;;;42.65;22.87;;;;;;;8.78;100.00;98785.52;1696781;82;21015;-76
2021/11/03 07:16:14;;;;;;;41.10;20.92;;;;;;;8.77;100.00;98784.71;1684773;83;21035;-78
2021/11/03 07:18:41;;;;;;;45.38;21.25;;;;;;;8.77;100.00;98784.71;1668581;83;20965;-69
2021/11/03 07:21:15;;;;;;;44.35;20.97;;;;;;;8.78;100.00;98787.69;1639867;85;21491;-70
2021/11/03 07:23:43;;;;;;;47.70;22.10;;;;;;;8.80;100.00;98790.91;1694157;83;20935;-73
2021/11/03 07:26:13;;;;;;;47.03;22.48;;;;;;;8.84;100.00;98792.44;1673243;83;21149;-72
2021/11/03 07:28:43;;;;;;;51.45;23.22;;;;;;;8.86;100.00;98791.55;1686170;83;21039;-73
2021/11/03 07:31:10;;;;;;;51.35;23.77;;;;;;;8.88;100.00;98793.41;1698453;83;21115;-75
2021/11/03 07:33:43;;;;;;;51.63;25.50;;;;;;;8.89;100.00;98787.61;1687651;83;21150;-77
2021/11/03 07:36:16;;;;;;;49.00;23.57;;;;;;;8.92;100.00;98784.23;1675935;83;21003;-71
2021/11/03 07:38:45;;;;;;;58.48;26.57;;;;;;;8.95;100.00;98782.77;1716167;83;21534;-72
2021/11/03 07:41:16;;;;;;;58.73;27.02;;;;;;;8.97;100.00;98783.26;1704889;83;21011;-72
2021/11/03 07:43:57;;;;;;;64.22;29.75;;;;;;;9.02;100.00;98782.28;1689994;83;20953;-72
2021/11/03 07:46:22;;;;;;;58.43;27.53;;;;;;;9.06;100.00;98787.36;1697641;82;21147;-71
2021/11/03 07:48:52;;;;;;;63.45;28.83;;;;;;;9.10;100.00;98786.95;1698025;83;21193;-72
2021/11/03 07:51:18;;;;;;;63.23;29.00;;;;;;;9.14;100.00;98783.23;1687396;83;21038;-69
2021/11/03 07:53:58;;;;;;;54.80;27.30;;;;;;;9.19;100.00;98780.89;1715967;83;21030;-74
2021/11/03 07:56:22;;;;;;;62.62;28.40;;;;;;;9.23;100.00;98787.34;1698242;83;20999;-83
2021/11/03 07:58:54;;;;;;;56.45;26.10;;;;;;;9.28;100.00;98794.78;1674747;83;21139;-71
2021/11/03 08:01:22;;;;;;;57.65;25.60;;;;;;;9.33;100.00;98796.55;1695938;83;21056;-72
2021/11/03 08:03:50;;;;;;;51.48;24.87;;;;;;;9.34;100.00;98791.88;1685116;83;21113;-73
2021/11/03 08:06:19;;;;;;;52.15;27.13;;;;;;;9.40;100.00;98798.80;1693831;83;21051;-73
2021/11/03 08:09:06;;;;;;;50.73;24.80;;;;;;;9.45;100.00;98800.80;1705084;83;21169;-71
2021/11/03 08:11:46;;;;;;;41.95;21.80;;;;;;;9.52;100.00;98803.84;1699118;82;21784;-75
2021/11/03 08:14:08;;;;;;;38.95;19.57;;;;;;;9.62;100.00;98812.27;1698827;82;20980;-73
2021/11/03 08:16:48;;;;;;;37.33;19.25;;;;;;;9.69;100.00;98820.80;1700242;82;21108;-71
2021/11/03 08:19:21;;;;;;;38.98;19.12;;;;;;;9.73;100.00;98819.02;1685025;83;20912;-76
2021/11/03 08:21:50;;;;;;;43.15;19.70;;;;;;;9.74;100.00;98824.73;1690460;83;21113;-72
2021/11/03 08:24:17;;;;;;;36.03;19.00;;;;;;;9.76;100.00;98823.84;1694436;82;21550;-79
2021/11/03 08:26:51;;;;;;;38.70;19.32;;;;;;;9.83;100.00;98827.42;1696389;83;21019;-72
2021/11/03 08:29:16;;;;;;;42.37;21.13;;;;;;;9.86;100.00;98827.56;1704204;83;21614;-69
2021/11/03 08:31:44;;;;;;;39.05;21.15;;;;;;;9.92;100.00;98834.48;1707497;83;20936;-72
2021/11/03 08:34:13;;;;;;;38.08;21.30;;;;;;;9.99;100.00;98844.13;1699159;83;21055;-67
2021/11/03 08:36:42;;;;;;;36.75;19.95;;;;;;;10.04;100.00;98839.27;1691645;83;21158;-69
2021/11/03 08:39:09;;;;;;;41.20;22.55;;;;;;;10.11;100.00;98842.87;1701136;83;20892;-69
2021/11/03 08:41:38;;;;;;;38.50;23.62;;;;;;;10.16;100.00;98843.50;1699957;83;21565;-69
2021/11/03 08:44:05;;;;;;;45.60;24.27;;;;;;;10.27;100.00;98845.33;1708432;82;21439;-77
2021/11/03 08:46:33;;;;;;;48.00;24.55;;;;;;;10.35;100.00;98849.97;1675142;83;21141;-69
2021/11/03 08:49:02;;;;;;;44.38;24.40;;;;;;;10.39;100.00;98853.66;1665660;85;21979;-68
2021/11/03 08:51:33;;;;;;;45.92;23.87;;;;;;;10.46;100.00;98850.37;1676997;83;21529;-68
2021/11/03 08:54:01;;;;;;;42.70;23.10;;;;;;;10.50;100.00;98856.23;1684502;84;21601;-67
2021/11/03 08:56:28;;;;;;;41.08;22.15;;;;;;;10.56;100.00;98855.48;1704742;82;21559;-67
2021/11/03 08:58:57;;;;;;;35.80;21.93;;;;;;;10.61;100.00;98859.41;1694699;83;21090;-71
2021/11/03 09:01:29;;;;;;;37.00;22.00;;;;;;;10.66;100.00;98861.95;1700729;82;21066;-70
2021/11/03 09:03:56;;;;;;;41.65;23.38;;;;;;;10.72;100.00;98869.43;1695779;83;21633;-69
2021/11/03 09:06:27;;;;;;;44.10;23.35;;;;;;;10.77;100.00;98872.78;1697488;83;21012;-71
2021/11/03 09:08:53;;;;;;;37.65;20.92;;;;;;;10.81;100.00;98881.16;1693935;82;21551;-69
2021/11/03 09:11:27;;;;;;;44.35;23.47;;;;;;;10.86;100.00;98886.46;1701550;83;21029;-70
2021/11/03 09:13:59;;;;;;;39.25;22.30;;;;;;;10.92;100.00;98885.12;1712198;83;21955;-70
2021/11/03 09:16:27;;;;;;;34.08;21.65;;;;;;;10.97;100.00;98882.18;1689647;83;20991;-72
2021/11/03 09:18:57;;;;;;;43.08;23.70;;;;;;;11.02;100.00;98888.02;1720631;83;21076;-74
2021/11/03 09:21:24;;;;;;;41.83;24.50;;;;;;;11.05;100.00;98894.22;1703474;83;21517;-78
2021/11/03 09:23:51;;;;;;;39.90;22.35;;;;;;;11.13;100.00;98891.97;1688369;83;21201;-70
2021/11/03 09:26:21;;;;;;;44.42;23.47;;;;;;;11.21;100.00;98895.22;1684670;83;21524;-71
2021/11/03 09:28:48;;;;;;;44.23;24.15;;;;;;;11.29;100.00;98894.92;1678348;82;21034;-70
2021/11/03 09:31:17;;;;;;;45.23;23.00;;;;;;;11.36;100.00;98893.24;1699683;83;21052;-69
2021/11/03 09:33:45;;;;;;;41.23;24.60;;;;;;;11.44;100.00;98898.43;1688895;83;21530;-68
2021/11/03 09:36:16;;;;;;;39.38;24.15;;;;;;;11.48;100.00;98902.92;1714179;83;21068;-68
2021/11/03 09:38:45;;;;;;;;;;;;;;;11.56;100.00;98907.50;1700430;83;21563;-68
2021/11/03 09:41:27;;;;;;;45.52;25.37;;;;;;;11.60;100.00;98904.88;1707811;82;20151;-68
2021/11/03 09:44:04;;;;;;;44.55;25.95;;;;;;;11.64;100.00;98911.89;1707128;83;21469;-70
2021/11/03 09:46:40;;;;;;;36.10;22.87;;;;;;;11.68;100.00;98912.25;1667661;84;20995;-72
2021/11/03 09:49:32;;;;;;;37.95;23.10;;;;;;;11.75;100.00;98917.20;1685437;83;20972;-73
2021/11/03 09:52:07;;;;;;;39.55;23.65;;;;;;;11.80;100.00;98916.45;1653446;84;21162;-70
2021/11/03 09:54:35;;;;;;;42.93;23.32;;;;;;;11.93;100.00;98913.73;1678883;83;21094;-74
2021/11/03 09:57:24;;;;;;;32.78;20.23;;;;;;;12.07;100.00;98916.98;1661805;84;21105;-74
2021/11/03 10:00:06;;;;;;;29.77;19.57;;;;;;;12.24;100.00;98914.01;1685832;83;20936;-71
2021/11/03 10:03:12;;;;;;;35.55;20.40;;;;;;;12.36;100.00;98922.28;1682889;83;21014;-70
2021/11/03 10:05:46;;;;;;;28.87;18.07;;;;;;;12.40;100.00;98919.65;1683394;83;21065;-76
2021/11/03 10:08:14;;;;;;;;;;;;;;;12.48;100.00;98924.24;1712372;82;20951;-74
2021/11/03 10:11:05;;;;;;;28.25;16.82;;;;;;;12.63;100.00;98924.14;1689935;84;33307;-75
2021/11/03 10:13:37;;;;;;;27.02;17.42;;;;;;;12.78;98.16;98924.22;1696275;83;21533;-71
2021/11/03 10:16:19;;;;;;;24.43;15.88;;;;;;;12.90;95.22;98926.16;1695689;83;21071;-71
2021/11/03 10:19:16;;;;;;;23.00;15.23;;;;;;;12.93;92.04;98924.09;1696753;83;21239;-75
2021/11/03 10:22:00;;;;;;;25.43;16.15;;;;;;;13.01;92.86;98925.13;1706433;83;21097;-77
2021/11/03 10:24:33;;;;;;;22.07;14.15;;;;;;;13.28;93.68;98937.39;1694623;83;21032;-81
2021/11/03 10:27:17;;;;;;;27.37;15.78;;;;;;;13.58;93.20;98931.77;1698507;83;21118;-81
2021/11/03 10:29:55;;;;;;;22.67;15.53;;;;;;;13.84;88.06;98923.84;1701199;82;21046;-85
2021/11/03 10:32:39;;;;;;;22.87;15.80;;;;;;;14.09;87.64;98932.77;1664875;83;21156;-82
2021/11/03 10:35:23;;;;;;;23.18;15.83;;;;;;;14.60;87.16;98934.86;1668679;84;20910;-83
2021/11/03 10:38:02;;;;;;;23.32;15.48;;;;;;;15.06;80.66;98931.79;1689591;82;21756;-74
2021/11/03 10:40:44;;;;;;;20.65;14.47;;;;;;;15.35;79.77;98940.95;1701085;83;21031;-76
2021/11/03 10:43:40;;;;;;;22.27;14.70;;;;;;;15.80;77.39;98940.32;1697395;83;21560;-79
2021/11/03 10:46:26;;;;;;;19.62;13.22;;;;;;;16.28;72.45;98952.47;1677710;83;21250;-75
2021/11/03 10:49:12;;;;;;;17.15;11.45;;;;;;;16.58;68.43;98960.34;1704267;83;21034;-72
2021/11/03 10:51:41;;;;;;;18.37;13.48;;;;;;;16.64;64.94;98949.75;1712683;82;21031;-71
2021/11/03 10:54:19;;;;;;;20.72;12.80;;;;;;;16.33;65.53;98954.94;1701188;83;20970;-69
2021/11/03 10:56:51;;;;;;;17.00;12.65;;;;;;;16.12;67.80;98953.41;1704237;83;20944;-71
2021/11/03 10:59:26;;;;;;;19.98;12.33;;;;;;;15.96;67.02;98958.23;1708796;83;21650;-71
2021/11/03 11:01:55;;;;;;;17.20;12.47;;;;;;;15.72;67.30;98962.09;1707652;83;21142;-71
2021/11/03 11:04:36;;;;;;;16.25;11.28;;;;;;;15.54;67.77;98963.68;1643808;86;21025;-73
2021/11/03 11:07:32;;;;;;;16.62;12.25;;;;;;;15.36;65.73;98970.78;1624353;84;21087;-72
2021/11/03 11:10:21;;;;;;;17.23;10.88;;;;;;;15.34;66.96;98975.30;1670877;84;21006;-73
2021/11/03 11:12:49;;;;;;;18.20;11.68;;;;;;;15.72;64.98;98967.62;1688803;83;21802;-71
2021/11/03 11:15:21;;;;;;;16.27;11.18;;;;;;;16.16;64.90;98970.89;1690841;83;21072;-74
2021/11/03 11:18:05;;;;;;;14.53;9.83;;;;;;;16.38;64.16;98978.19;1687469;83;20943;-71
2021/11/03 11:20:43;;;;;;;16.67;10.63;;;;;;;16.30;62.53;98975.06;1704465;82;21827;-80
2021/11/03 11:23:20;;;;;;;13.93;10.18;;;;;;;16.25;62.06;98980.91;1711350;83;21031;-80
2021/11/03 11:26:12;;;;;;;18.25;9.70;;;;;;;16.34;58.94;98975.94;1709520;82;21557;-73
2021/11/03 11:29:06;;;;;;;13.53;8.60;;;;;;;16.53;59.40;98977.27;1690037;83;21007;-79
2021/11/03 11:31:57;;;;;;;11.00;8.55;;;;;;;16.95;57.27;98987.48;1684842;84;21040;-74
2021/11/03 11:34:51;;;;;;;12.70;9.03;;;;;;;17.21;55.43;98986.13;1688266;83;21063;-78
2021/11/03 11:37:36;;;;;;;13.40;8.15;;;;;;;17.38;55.67;98991.11;1693706;84;20865;-78
2021/11/03 11:40:23;;;;;;;12.07;8.45;;;;;;;17.81;54.67;98991.73;1692350;83;21788;-72
2021/11/03 11:43:31;;;;;;;13.10;8.83;;;;;;;18.08;54.44;98992.43;1703396;83;21083;-76
2021/11/03 11:45:55;;;;;;;16.12;9.38;;;;;;;18.33;52.05;98987.95;1699037;83;20856;-75